Terminal Aerodrome Forecast
Issued by NWS

Home | Current Version | Previous Version | Text Only | Print | Product List | Glossary On
Versions: 1 2 3 4 5 6 7 8 9 10 11 12 13 14 15 16 17 18 19 20 21 22 23 24 25 26 27 28 29 30 31
000
FTUS43 KDDC 311120
TAFGCK
TAF
KGCK 311120Z 3112/0112 19018G26KT P6SM SCT120
     FM311800 20025G34KT P6SM FEW100
     FM312200 17017G24KT P6SM SCT080 PROB30 3122/0102 VRB30G45KT 3SM
      TSRA BKN060CB
     FM010600 VRB06KT P6SM SCT250=

USA.gov is the U.S. government's official web portal to all federal, state and local government web resources and services.